createdAt,value
2023-01-06T00:00:55.084Z,99.99
2023-01-06T00:01:55.033Z,99.99
2023-01-06T00:02:55.013Z,99.99
2023-01-06T00:03:55.012Z,99.99
2023-01-06T00:04:55.059Z,99.99
2023-01-06T00:05:55.100Z,99.99
2023-01-06T00:06:54.974Z,99.99
2023-01-06T00:07:54.959Z,99.99
2023-01-06T00:08:54.965Z,99.99
2023-01-06T00:09:54.946Z,99.99
2023-01-06T00:10:54.941Z,99.99
2023-01-06T00:11:54.920Z,99.99
2023-01-06T00:12:54.909Z,99.99
2023-01-06T00:13:54.907Z,99.99
2023-01-06T00:14:54.899Z,99.99
2023-01-06T00:15:54.895Z,99.99
2023-01-06T00:16:54.880Z,99.99
2023-01-06T00:17:54.867Z,99.99
2023-01-06T00:18:54.860Z,99.99
2023-01-06T00:19:54.850Z,99.99
2023-01-06T00:20:54.826Z,99.99
2023-01-06T00:21:54.932Z,99.99
2023-01-06T00:22:54.814Z,99.99
2023-01-06T00:23:54.803Z,99.99
2023-01-06T00:24:54.787Z,99.99
2023-01-06T00:25:54.789Z,99.99
2023-01-06T00:26:54.784Z,99.99
2023-01-06T00:27:54.751Z,99.99
2023-01-06T00:28:54.742Z,99.99
2023-01-06T00:29:54.738Z,99.99
2023-01-06T00:30:54.822Z,99.99
2023-01-06T00:31:54.730Z,99.99
2023-01-06T00:32:54.725Z,99.99
2023-01-06T00:33:54.707Z,99.99
2023-01-06T00:34:54.676Z,99.99
2023-01-06T00:35:54.671Z,99.99
2023-01-06T00:36:54.696Z,99.99
2023-01-06T00:37:54.764Z,99.99
2023-01-06T00:38:54.670Z,99.99
2023-01-06T00:39:54.666Z,99.99
2023-01-06T00:40:54.628Z,99.99
2023-01-06T00:41:56.917Z,99.99
2023-01-06T00:42:55.033Z,99.99
2023-01-06T00:43:55.493Z,99.99
2023-01-06T00:44:54.561Z,99.99
2023-01-06T00:45:54.573Z,99.99
2023-01-06T00:46:54.534Z,99.99
2023-01-06T00:47:54.554Z,99.99
2023-01-06T00:49:06.352Z,99.99
2023-01-06T00:49:55.511Z,99.99
2023-01-06T00:50:54.515Z,99.99
2023-01-06T00:51:54.511Z,99.99
2023-01-06T00:52:54.496Z,99.99
2023-01-06T00:53:54.588Z,99.99
2023-01-06T00:54:54.477Z,99.99
2023-01-06T00:55:54.448Z,99.99
2023-01-06T00:56:54.433Z,99.99
2023-01-06T00:57:54.427Z,99.99
2023-01-06T00:58:54.438Z,99.99
2023-01-06T00:59:54.411Z,99.99
2023-01-06T01:00:54.393Z,99.99
2023-01-06T01:01:54.578Z,99.99
2023-01-06T01:02:54.418Z,99.99
2023-01-06T01:03:54.352Z,99.99
2023-01-06T01:04:54.364Z,99.99
2023-01-06T01:05:54.342Z,99.99
2023-01-06T01:06:54.323Z,99.99
2023-01-06T01:07:54.308Z,99.99
2023-01-06T01:08:54.317Z,99.99
2023-01-06T01:09:54.426Z,99.99
2023-01-06T01:10:54.278Z,99.99
2023-01-06T01:11:54.294Z,99.99
2023-01-06T01:12:54.258Z,99.99
2023-01-06T01:13:54.255Z,99.99
2023-01-06T01:14:54.239Z,99.99
2023-01-06T01:15:54.246Z,99.99
2023-01-06T01:16:54.244Z,99.99
2023-01-06T01:17:54.203Z,99.99
2023-01-06T01:18:54.202Z,99.99
2023-01-06T01:19:54.205Z,99.99
2023-01-06T01:20:54.177Z,99.99
2023-01-06T01:21:54.166Z,99.99
2023-01-06T01:22:54.171Z,99.99
2023-01-06T01:23:54.152Z,99.99
2023-01-06T01:24:54.130Z,99.99
2023-01-06T01:25:54.251Z,99.99
2023-01-06T01:26:54.128Z,99.99
2023-01-06T01:27:54.104Z,99.99
2023-01-06T01:28:54.085Z,99.99
2023-01-06T01:29:54.091Z,99.99
2023-01-06T01:30:54.088Z,99.99
2023-01-06T01:31:54.067Z,99.99
2023-01-06T01:32:54.059Z,99.99
2023-01-06T01:33:54.045Z,99.96
2023-01-06T01:34:54.037Z,99.96
2023-01-06T01:35:54.027Z,99.99
2023-01-06T01:36:54.008Z,99.91
2023-01-06T01:37:54.009Z,99.91
2023-01-06T01:38:53.989Z,99.80
2023-01-06T01:39:53.978Z,99.70
2023-01-06T01:40:53.980Z,99.60
2023-01-06T01:41:54.087Z,99.76
2023-01-06T01:42:53.941Z,99.91
2023-01-06T01:43:53.945Z,99.60
2023-01-06T01:44:53.929Z,99.60
2023-01-06T01:45:54.047Z,99.49
2023-01-06T01:46:53.898Z,99.60
2023-01-06T01:47:53.889Z,99.29
2023-01-06T01:48:53.882Z,99.60
2023-01-06T01:49:53.868Z,99.49
2023-01-06T01:50:53.854Z,99.24
2023-01-06T01:51:53.846Z,98.97
2023-01-06T01:52:53.837Z,98.66
2023-01-06T01:53:53.845Z,99.55
2023-01-06T01:54:53.811Z,98.97
2023-01-06T01:55:53.802Z,98.66
2023-01-06T01:56:53.787Z,98.77
2023-01-06T01:57:53.903Z,98.77
2023-01-06T01:58:53.794Z,98.77
2023-01-06T01:59:53.769Z,98.56
2023-01-06T02:00:53.749Z,98.87
2023-01-06T02:01:53.882Z,98.66
2023-01-06T02:02:53.748Z,99.39
2023-01-06T02:03:53.710Z,99.49
2023-01-06T02:04:53.721Z,98.77
2023-01-06T02:05:53.701Z,98.72
2023-01-06T02:06:53.698Z,98.66
2023-01-06T02:07:53.665Z,98.46
2023-01-06T02:08:53.675Z,98.25
2023-01-06T02:09:53.652Z,98.52
2023-01-06T02:10:53.667Z,98.10
2023-01-06T02:11:53.627Z,98.31
2023-01-06T02:12:53.626Z,98.10
2023-01-06T02:13:53.727Z,98.10
2023-01-06T02:14:53.599Z,98.10
2023-01-06T02:15:53.663Z,97.59
2023-01-06T02:16:53.588Z,98.21
2023-01-06T02:17:53.577Z,98.10
2023-01-06T02:18:53.564Z,98.62
2023-01-06T02:19:53.539Z,98.10
2023-01-06T02:20:53.531Z,98.21
2023-01-06T02:21:53.540Z,98.62
2023-01-06T02:22:53.504Z,98.25
2023-01-06T02:23:53.506Z,98.10
2023-01-06T02:24:53.490Z,98.52
2023-01-06T02:25:53.473Z,98.56
2023-01-06T02:26:53.480Z,98.56
2023-01-06T02:27:53.465Z,98.83
2023-01-06T02:28:53.451Z,98.72
2023-01-06T02:29:53.559Z,99.18
2023-01-06T02:30:53.471Z,99.14
2023-01-06T02:31:53.426Z,99.34
2023-01-06T02:32:53.401Z,99.14
2023-01-06T02:33:55.101Z,99.24
2023-01-06T02:34:53.382Z,98.41
2023-01-06T02:35:53.370Z,98.72
2023-01-06T02:36:53.385Z,99.55
2023-01-06T02:37:53.358Z,98.52
2023-01-06T02:38:53.352Z,99.14
2023-01-06T02:39:53.331Z,99.24
2023-01-06T02:40:53.311Z,99.44
2023-01-06T02:41:53.309Z,99.30
2023-01-06T02:42:53.294Z,99.19
2023-01-06T02:43:53.304Z,99.44
2023-01-06T02:44:53.268Z,99.24
2023-01-06T02:45:53.367Z,99.61
2023-01-06T02:46:53.242Z,99.55
2023-01-06T02:47:53.238Z,99.71
2023-01-06T02:48:53.237Z,99.99
2023-01-06T02:49:53.223Z,99.99
2023-01-06T02:50:53.213Z,99.82
2023-01-06T02:51:53.191Z,99.92
2023-01-06T02:52:53.184Z,99.99
2023-01-06T02:53:53.177Z,99.99
2023-01-06T02:54:53.178Z,99.99
2023-01-06T02:55:53.157Z,99.99
2023-01-06T02:56:53.142Z,99.99
2023-01-06T02:57:53.140Z,99.99
2023-01-06T02:58:53.120Z,99.99
2023-01-06T02:59:53.131Z,99.99
2023-01-06T03:00:53.093Z,99.99
2023-01-06T03:01:53.289Z,99.99
2023-01-06T03:02:53.084Z,99.99
2023-01-06T03:03:53.060Z,99.99
2023-01-06T03:04:53.095Z,99.99
2023-01-06T03:05:53.059Z,99.99
2023-01-06T03:06:53.101Z,99.99
2023-01-06T03:07:53.037Z,99.99
2023-01-06T03:08:53.011Z,99.99
2023-01-06T03:09:52.999Z,99.99
2023-01-06T03:10:52.994Z,99.99
2023-01-06T03:11:52.992Z,99.99
2023-01-06T03:12:52.970Z,99.99
2023-01-06T03:13:52.955Z,99.99
2023-01-06T03:14:52.974Z,99.99
2023-01-06T03:15:53.015Z,99.99
2023-01-06T03:16:52.962Z,99.99
2023-01-06T03:17:53.029Z,99.99
2023-01-06T03:18:52.916Z,99.99
2023-01-06T03:19:52.895Z,99.99
2023-01-06T03:20:52.886Z,99.99
2023-01-06T03:21:52.878Z,99.99
2023-01-06T03:22:52.889Z,99.99
2023-01-06T03:23:52.853Z,99.99
2023-01-06T03:24:52.839Z,99.99
2023-01-06T03:25:52.837Z,99.99
2023-01-06T03:26:52.881Z,99.99
2023-01-06T03:27:52.806Z,99.99
2023-01-06T03:28:52.809Z,99.99
2023-01-06T03:29:52.786Z,99.99
2023-01-06T03:30:52.775Z,99.99
2023-01-06T03:31:52.779Z,99.99
2023-01-06T03:32:52.774Z,99.99
2023-01-06T03:33:52.869Z,99.99
2023-01-06T03:34:52.752Z,99.99
2023-01-06T03:35:52.741Z,99.99
2023-01-06T03:36:52.723Z,99.99
2023-01-06T03:37:52.721Z,99.99
2023-01-06T03:38:52.693Z,99.99
2023-01-06T03:39:52.684Z,99.99
2023-01-06T03:40:52.679Z,99.99
2023-01-06T03:41:52.686Z,99.99
2023-01-06T03:42:52.669Z,99.99
2023-01-06T03:43:52.655Z,99.99
2023-01-06T03:44:52.635Z,99.99
2023-01-06T03:45:52.638Z,99.99
2023-01-06T03:46:52.668Z,99.99
2023-01-06T03:47:52.612Z,99.99
2023-01-06T03:48:52.585Z,99.99
2023-01-06T03:49:52.697Z,99.99
2023-01-06T03:50:52.591Z,99.99
2023-01-06T03:51:55.326Z,99.99
2023-01-06T03:52:52.552Z,99.99
2023-01-06T03:53:52.542Z,99.99
2023-01-06T03:54:52.536Z,99.99
2023-01-06T03:55:52.520Z,99.99
2023-01-06T03:56:52.509Z,99.99
2023-01-06T03:57:52.514Z,99.99
2023-01-06T03:58:52.520Z,99.99
2023-01-06T03:59:52.490Z,99.99
2023-01-06T04:00:52.485Z,99.99
2023-01-06T04:01:52.514Z,99.99
2023-01-06T04:02:52.440Z,99.99
2023-01-06T04:03:52.482Z,99.99
2023-01-06T04:04:52.446Z,99.99
2023-01-06T04:05:52.526Z,99.99
2023-01-06T04:06:52.417Z,99.99
2023-01-06T04:07:52.408Z,99.99
2023-01-06T04:08:52.382Z,99.99
2023-01-06T04:09:52.385Z,99.99
2023-01-06T04:10:52.360Z,99.99
2023-01-06T04:11:52.361Z,99.99
2023-01-06T04:12:52.369Z,99.99
2023-01-06T04:13:52.341Z,99.99
2023-01-06T04:14:52.316Z,99.99
2023-01-06T04:15:52.392Z,99.99
2023-01-06T04:16:52.289Z,99.99
2023-01-06T04:17:52.299Z,99.99
2023-01-06T04:18:52.285Z,99.99
2023-01-06T04:19:52.279Z,99.99
2023-01-06T04:20:52.251Z,99.99
2023-01-06T04:21:52.362Z,99.99
2023-01-06T04:22:52.235Z,99.99
2023-01-06T04:23:52.232Z,99.99
2023-01-06T04:24:52.224Z,99.99
2023-01-06T04:25:52.213Z,99.99
2023-01-06T04:26:52.196Z,99.99
2023-01-06T04:27:52.181Z,99.99
2023-01-06T04:28:52.171Z,99.99
2023-01-06T04:29:52.179Z,99.99
2023-01-06T04:30:52.145Z,99.99
2023-01-06T04:31:52.240Z,99.99
2023-01-06T04:32:52.159Z,99.99
2023-01-06T04:33:52.117Z,99.99
2023-01-06T04:34:52.104Z,99.99
2023-01-06T04:35:52.099Z,99.99
2023-01-06T04:36:52.095Z,99.99
2023-01-06T04:37:52.189Z,99.99
2023-01-06T04:38:52.074Z,99.99
2023-01-06T04:39:52.058Z,99.99
2023-01-06T04:40:52.059Z,99.99
2023-01-06T04:41:52.032Z,99.99
2023-01-06T04:42:52.031Z,99.99
2023-01-06T04:43:52.020Z,99.99
2023-01-06T04:44:52.013Z,99.99
2023-01-06T04:45:52.042Z,99.99
2023-01-06T04:46:52.007Z,99.99
2023-01-06T04:47:51.976Z,99.99
2023-01-06T04:48:51.954Z,99.99
2023-01-06T04:49:51.952Z,99.99
2023-01-06T04:50:51.942Z,99.99
2023-01-06T04:51:51.951Z,99.99
2023-01-06T04:52:51.919Z,99.99
2023-01-06T04:53:52.017Z,99.99
2023-01-06T04:54:51.898Z,99.99
2023-01-06T04:55:51.888Z,99.99
2023-01-06T04:56:51.879Z,99.99
2023-01-06T04:57:51.873Z,99.99
2023-01-06T04:58:51.852Z,99.99
2023-01-06T04:59:51.838Z,99.99
2023-01-06T05:00:51.924Z,99.99
2023-01-06T05:01:51.957Z,99.99
2023-01-06T05:02:51.827Z,99.99
2023-01-06T05:03:51.873Z,99.99
2023-01-06T05:04:51.819Z,99.99
2023-01-06T05:05:51.792Z,99.99
2023-01-06T05:06:51.780Z,99.99
2023-01-06T05:07:51.760Z,99.99
2023-01-06T05:08:51.752Z,99.99
2023-01-06T05:09:51.860Z,99.99
2023-01-06T05:10:51.747Z,99.99
2023-01-06T05:11:51.746Z,99.99
2023-01-06T05:12:51.701Z,99.99
2023-01-06T05:13:51.690Z,99.99
2023-01-06T05:14:51.681Z,99.99
2023-01-06T05:15:51.688Z,99.99
2023-01-06T05:16:51.677Z,99.99
2023-01-06T05:17:51.665Z,99.99
2023-01-06T05:18:51.665Z,99.99
2023-01-06T05:19:51.639Z,99.99
2023-01-06T05:20:51.620Z,99.99
2023-01-06T05:21:51.615Z,99.99
2023-01-06T05:22:51.604Z,99.99
2023-01-06T05:23:51.622Z,99.99
2023-01-06T05:24:51.586Z,99.99
2023-01-06T05:25:51.721Z,99.99
2023-01-06T05:26:51.620Z,99.99
2023-01-06T05:27:51.548Z,99.99
2023-01-06T05:28:52.512Z,99.99
2023-01-06T05:29:51.626Z,99.99
2023-01-06T05:30:51.541Z,99.99
2023-01-06T05:31:51.545Z,99.99
2023-01-06T05:32:51.500Z,99.99
2023-01-06T05:33:51.487Z,99.99
2023-01-06T05:34:51.512Z,99.99
2023-01-06T05:35:51.467Z,99.99
2023-01-06T05:36:51.463Z,99.99
2023-01-06T05:37:51.443Z,99.99
2023-01-06T05:38:51.435Z,99.99
2023-01-06T05:39:51.461Z,99.99
2023-01-06T05:40:51.428Z,99.99
2023-01-06T05:41:51.673Z,99.99
2023-01-06T05:42:51.398Z,99.99
2023-01-06T05:43:51.386Z,99.99
2023-01-06T05:44:51.364Z,99.99
2023-01-06T05:45:51.457Z,99.99
2023-01-06T05:46:51.355Z,99.99
2023-01-06T05:47:51.332Z,99.99
2023-01-06T05:48:51.336Z,99.99
2023-01-06T05:49:51.331Z,99.99
2023-01-06T05:50:51.319Z,99.99
2023-01-06T05:51:51.312Z,99.99
2023-01-06T05:52:51.301Z,99.99
2023-01-06T05:53:51.279Z,99.99
2023-01-06T05:54:51.277Z,99.99
2023-01-06T05:55:51.258Z,99.99
2023-01-06T05:56:51.269Z,99.99
2023-01-06T05:57:51.340Z,99.99
2023-01-06T05:58:51.225Z,99.99
2023-01-06T05:59:51.216Z,99.99
2023-01-06T06:00:51.214Z,99.99
2023-01-06T06:01:51.226Z,99.99
2023-01-06T06:02:51.192Z,99.99
2023-01-06T06:03:51.260Z,99.99
2023-01-06T06:04:51.168Z,99.99
2023-01-06T06:05:51.168Z,99.99
2023-01-06T06:06:51.139Z,99.99
2023-01-06T06:07:51.155Z,99.99
2023-01-06T06:08:51.125Z,99.99
2023-01-06T06:09:51.112Z,99.99
2023-01-06T06:10:51.099Z,99.99
2023-01-06T06:11:51.103Z,99.99
2023-01-06T06:12:51.075Z,99.99
2023-01-06T06:13:51.172Z,99.99
2023-01-06T06:14:51.058Z,99.99
2023-01-06T06:15:51.048Z,99.99
2023-01-06T06:16:51.064Z,99.99
2023-01-06T06:17:51.026Z,99.99
2023-01-06T06:18:51.029Z,99.99
2023-01-06T06:19:51.003Z,99.99
2023-01-06T06:20:51.002Z,99.99
2023-01-06T06:21:50.991Z,99.99
2023-01-06T06:22:50.964Z,99.99
2023-01-06T06:23:50.979Z,99.99
2023-01-06T06:24:50.941Z,99.99
2023-01-06T06:25:50.946Z,99.99
2023-01-06T06:26:50.927Z,99.99
2023-01-06T06:27:50.920Z,99.99
2023-01-06T06:28:50.919Z,99.99
2023-01-06T06:29:51.024Z,99.99
2023-01-06T06:30:50.893Z,99.99
2023-01-06T06:31:50.897Z,99.99
2023-01-06T06:32:50.863Z,99.99
2023-01-06T06:33:50.876Z,99.99
2023-01-06T06:34:50.837Z,99.99
2023-01-06T06:35:50.845Z,99.99
2023-01-06T06:36:50.837Z,99.99
2023-01-06T06:37:50.824Z,99.99
2023-01-06T06:38:50.807Z,99.99
2023-01-06T06:39:50.793Z,99.99
2023-01-06T06:40:50.788Z,99.99
2023-01-06T06:41:50.770Z,99.99
2023-01-06T06:42:50.764Z,99.99
2023-01-06T06:43:50.756Z,99.99
2023-01-06T06:44:52.165Z,99.99
2023-01-06T06:45:50.960Z,99.99
2023-01-06T06:46:50.713Z,99.99
2023-01-06T06:47:50.708Z,99.99
2023-01-06T06:48:50.698Z,99.99
2023-01-06T06:49:50.688Z,99.99
2023-01-06T06:50:50.671Z,99.99
2023-01-06T06:51:50.677Z,99.99
2023-01-06T06:52:50.663Z,99.99
2023-01-06T06:53:50.658Z,99.99
2023-01-06T06:54:50.636Z,99.99
2023-01-06T06:55:50.622Z,99.99
2023-01-06T06:56:50.632Z,99.99
2023-01-06T06:57:50.608Z,99.99
2023-01-06T06:58:50.616Z,99.99
2023-01-06T06:59:50.583Z,99.99
2023-01-06T07:00:50.569Z,99.99
2023-01-06T07:01:50.777Z,99.99
2023-01-06T07:02:50.543Z,99.99
2023-01-06T07:03:50.540Z,99.99
2023-01-06T07:04:50.570Z,99.99
2023-01-06T07:05:50.529Z,99.99
2023-01-06T07:06:50.510Z,99.99
2023-01-06T07:07:50.506Z,99.99
2023-01-06T07:08:50.500Z,99.99
2023-01-06T07:09:50.471Z,99.99
2023-01-06T07:10:50.464Z,99.99
2023-01-06T07:11:50.449Z,99.99
2023-01-06T07:12:50.458Z,99.99
2023-01-06T07:13:50.424Z,99.99
2023-01-06T07:14:50.421Z,99.99
2023-01-06T07:15:50.470Z,99.99
2023-01-06T07:16:50.419Z,99.99
2023-01-06T07:17:50.497Z,99.99
2023-01-06T07:18:50.372Z,99.99
2023-01-06T07:19:50.371Z,99.99
2023-01-06T07:20:50.363Z,99.99
2023-01-06T07:21:50.358Z,99.99
2023-01-06T07:22:50.349Z,99.99
2023-01-06T07:23:50.334Z,99.99
2023-01-06T07:24:50.336Z,99.99
2023-01-06T07:25:50.295Z,99.99
2023-01-06T07:26:50.290Z,99.99
2023-01-06T07:27:50.312Z,99.99
2023-01-06T07:28:50.282Z,99.99
2023-01-06T07:29:50.258Z,99.99
2023-01-06T07:30:50.294Z,99.99
2023-01-06T07:31:50.241Z,99.99
2023-01-06T07:32:50.233Z,99.99
2023-01-06T07:33:50.349Z,99.99
2023-01-06T07:34:50.221Z,99.99
2023-01-06T07:35:50.188Z,99.99
2023-01-06T07:36:50.187Z,99.99
2023-01-06T07:37:50.218Z,99.99
2023-01-06T07:38:50.166Z,99.99
2023-01-06T07:39:50.159Z,99.99
2023-01-06T07:40:50.162Z,99.99
2023-01-06T07:41:50.133Z,99.99
2023-01-06T07:42:50.121Z,99.99
2023-01-06T07:43:50.125Z,99.99
2023-01-06T07:44:50.099Z,99.99
2023-01-06T07:45:50.150Z,99.99
2023-01-06T07:46:50.080Z,99.99
2023-01-06T07:47:50.066Z,99.99
2023-01-06T07:48:50.052Z,99.99
2023-01-06T07:49:50.171Z,99.99
2023-01-06T07:50:50.051Z,99.99
2023-01-06T07:51:50.028Z,99.99
2023-01-06T07:52:50.021Z,99.99
2023-01-06T07:53:50.008Z,99.99
2023-01-06T07:54:50.007Z,99.99
2023-01-06T07:55:49.980Z,99.99
2023-01-06T07:56:49.978Z,99.99
2023-01-06T07:57:49.979Z,99.99
2023-01-06T07:58:49.949Z,99.99
2023-01-06T07:59:49.939Z,99.99
2023-01-06T08:00:49.936Z,99.99
2023-01-06T08:01:50.037Z,99.99
2023-01-06T08:02:49.955Z,99.99
2023-01-06T08:03:49.900Z,99.99
2023-01-06T08:04:49.891Z,99.99
2023-01-06T08:05:50.004Z,99.99
2023-01-06T08:06:49.864Z,99.99
2023-01-06T08:07:49.856Z,99.99
2023-01-06T08:08:49.844Z,99.99
2023-01-06T08:09:49.836Z,99.99
2023-01-06T08:10:49.816Z,99.99
2023-01-06T08:11:49.809Z,99.99
2023-01-06T08:12:49.813Z,99.99
2023-01-06T08:13:49.779Z,99.99
2023-01-06T08:14:49.786Z,99.99
2023-01-06T08:15:49.787Z,99.99
2023-01-06T08:16:49.759Z,99.99
2023-01-06T08:17:49.737Z,99.99
2023-01-06T08:18:49.742Z,99.99
2023-01-06T08:19:49.729Z,99.99
2023-01-06T08:20:49.700Z,99.99
2023-01-06T08:21:49.817Z,99.99
2023-01-06T08:22:49.685Z,99.99
2023-01-06T08:23:49.693Z,99.99
2023-01-06T08:24:49.672Z,99.99
2023-01-06T08:25:49.685Z,99.99
2023-01-06T08:26:49.647Z,99.99
2023-01-06T08:27:49.639Z,99.99
2023-01-06T08:28:49.630Z,99.99
2023-01-06T08:29:49.635Z,99.99
2023-01-06T08:30:49.660Z,99.99
2023-01-06T08:32:09.802Z,99.99
2023-01-06T08:33:59.926Z,99.99
2023-01-06T08:35:09.560Z,99.99
2023-01-06T08:35:59.900Z,99.99
2023-01-06T08:37:00.017Z,99.99
2023-01-06T08:37:59.886Z,99.99
2023-01-06T08:38:59.883Z,99.99
2023-01-06T08:39:59.874Z,99.99
2023-01-06T08:40:59.871Z,99.99
2023-01-06T08:41:59.844Z,99.99
2023-01-06T08:42:59.848Z,99.99
2023-01-06T08:43:59.823Z,99.99
2023-01-06T08:44:59.822Z,99.99
2023-01-06T08:45:59.919Z,99.99
2023-01-06T08:46:59.800Z,99.99
2023-01-06T08:47:59.785Z,99.99
2023-01-06T08:48:59.771Z,99.99
2023-01-06T08:49:59.796Z,99.99
2023-01-06T08:50:59.754Z,99.99
2023-01-06T08:51:59.729Z,99.99
2023-01-06T08:52:59.837Z,99.99
2023-01-06T08:53:59.716Z,99.99
2023-01-06T08:54:59.714Z,99.99
2023-01-06T08:55:59.697Z,99.99
2023-01-06T08:56:59.684Z,99.99
2023-01-06T08:57:59.680Z,99.99
2023-01-06T08:58:59.651Z,99.99
2023-01-06T08:59:59.689Z,99.99
2023-01-06T09:00:59.657Z,99.99
2023-01-06T09:01:59.763Z,99.99
2023-01-06T09:02:59.628Z,99.99
2023-01-06T09:03:59.628Z,99.99
2023-01-06T09:04:59.657Z,99.99
2023-01-06T09:05:59.591Z,99.99
2023-01-06T09:06:59.590Z,99.99
2023-01-06T09:07:59.595Z,99.99
2023-01-06T09:08:59.700Z,99.99
2023-01-06T09:09:59.539Z,99.99
2023-01-06T09:10:59.528Z,99.99
2023-01-06T09:11:59.543Z,99.99
2023-01-06T09:12:59.526Z,99.99
2023-01-06T09:13:59.498Z,99.99
2023-01-06T09:14:59.488Z,99.99
2023-01-06T09:15:59.506Z,99.99
2023-01-06T09:16:59.487Z,99.99
2023-01-06T09:17:59.481Z,99.99
2023-01-06T09:18:59.470Z,99.99
2023-01-06T09:19:59.443Z,99.99
2023-01-06T09:20:59.428Z,99.99
2023-01-06T09:22:00.991Z,99.99
2023-01-06T09:22:59.410Z,99.99
2023-01-06T09:23:59.401Z,99.99
2023-01-06T09:24:59.501Z,99.99
2023-01-06T09:25:59.380Z,99.99
2023-01-06T09:26:59.377Z,99.99
2023-01-06T09:27:59.358Z,99.99
2023-01-06T09:28:59.358Z,99.99
2023-01-06T09:29:59.325Z,99.99
2023-01-06T09:30:59.350Z,99.99
2023-01-06T09:31:59.305Z,99.99
2023-01-06T09:32:59.296Z,99.99
2023-01-06T09:33:59.287Z,99.99
2023-01-06T09:34:59.300Z,99.99
2023-01-06T09:35:59.269Z,99.99
2023-01-06T09:36:59.249Z,99.99
2023-01-06T09:37:59.240Z,99.99
2023-01-06T09:38:59.233Z,99.99
2023-01-06T09:39:59.224Z,99.99
2023-01-06T09:40:59.326Z,99.99
2023-01-06T09:41:59.230Z,99.99
2023-01-06T09:42:59.197Z,99.99
2023-01-06T09:43:59.178Z,99.99
2023-01-06T09:44:59.187Z,99.99
2023-01-06T09:45:59.162Z,99.99
2023-01-06T09:46:59.172Z,99.99
2023-01-06T09:47:59.146Z,99.99
2023-01-06T09:48:59.124Z,99.99
2023-01-06T09:49:59.111Z,99.99
2023-01-06T09:50:59.121Z,99.99
2023-01-06T09:51:59.108Z,99.99
2023-01-06T09:52:59.083Z,99.99
2023-01-06T09:53:59.070Z,99.99
2023-01-06T09:54:59.060Z,99.99
2023-01-06T09:55:59.048Z,99.99
2023-01-06T09:56:59.171Z,99.99
2023-01-06T09:57:59.120Z,99.99
2023-01-06T09:58:59.027Z,99.99
2023-01-06T09:59:59.022Z,99.99
2023-01-06T10:00:59.009Z,99.99
2023-01-06T10:01:59.152Z,99.99
2023-01-06T10:02:59.002Z,99.99
2023-01-06T10:03:58.987Z,99.99
2023-01-06T10:04:58.971Z,99.99
2023-01-06T10:05:59.005Z,99.99
2023-01-06T10:06:58.951Z,99.99
2023-01-06T10:07:58.945Z,99.99
2023-01-06T10:08:58.912Z,99.99
2023-01-06T10:09:58.901Z,99.99
2023-01-06T10:10:58.893Z,99.99
2023-01-06T10:11:58.878Z,99.99
2023-01-06T10:12:58.987Z,99.99
2023-01-06T10:13:58.868Z,99.99
2023-01-06T10:14:58.843Z,99.99
2023-01-06T10:15:58.892Z,99.99
2023-01-06T10:16:58.843Z,99.99
2023-01-06T10:17:58.810Z,99.99
2023-01-06T10:18:58.818Z,99.99
2023-01-06T10:19:58.797Z,99.99
2023-01-06T10:20:58.780Z,99.99
2023-01-06T10:21:58.773Z,99.99
2023-01-06T10:22:58.765Z,99.99
2023-01-06T10:23:58.755Z,99.99
2023-01-06T10:24:58.752Z,99.99
2023-01-06T10:25:58.727Z,99.99
2023-01-06T10:26:58.733Z,99.99
2023-01-06T10:27:58.711Z,99.99
2023-01-06T10:28:58.817Z,99.99
2023-01-06T10:29:58.705Z,99.99
2023-01-06T10:30:58.674Z,99.99
2023-01-06T10:31:58.671Z,99.99
2023-01-06T10:32:58.671Z,99.99
2023-01-06T10:33:58.644Z,99.99
2023-01-06T10:34:58.634Z,99.99
2023-01-06T10:35:58.624Z,99.99
2023-01-06T10:36:58.607Z,99.99
2023-01-06T10:37:58.623Z,99.99
2023-01-06T10:38:58.600Z,99.99
2023-01-06T10:39:58.571Z,99.99
2023-01-06T10:40:58.568Z,99.99
2023-01-06T10:41:58.566Z,99.99
2023-01-06T10:42:58.560Z,99.99
2023-01-06T10:43:58.550Z,99.99
2023-01-06T10:45:06.197Z,99.99
2023-01-06T10:45:58.518Z,99.99
2023-01-06T10:47:07.037Z,99.99
2023-01-06T10:47:58.496Z,99.99
2023-01-06T10:48:58.479Z,99.99
2023-01-06T10:49:58.472Z,99.99
2023-01-06T10:50:58.483Z,99.99
2023-01-06T10:51:58.448Z,99.99
2023-01-06T10:52:58.442Z,99.99
2023-01-06T10:53:58.431Z,99.99
2023-01-06T10:54:58.457Z,99.99
2023-01-06T10:55:58.436Z,99.99
2023-01-06T10:56:58.390Z,99.99
2023-01-06T10:57:58.383Z,99.99
2023-01-06T10:58:58.383Z,99.99
2023-01-06T10:59:58.356Z,99.99
2023-01-06T11:00:58.593Z,99.99
2023-01-06T11:01:58.513Z,99.99
2023-01-06T11:03:14.340Z,99.99
2023-01-06T11:03:59.347Z,99.99
2023-01-06T11:04:58.315Z,99.99
2023-01-06T11:05:58.309Z,99.99
2023-01-06T11:06:58.307Z,99.99
2023-01-06T11:07:58.611Z,99.99
2023-01-06T11:08:58.317Z,99.99
2023-01-06T11:09:58.251Z,99.99
2023-01-06T11:10:58.260Z,99.99
2023-01-06T11:11:58.229Z,99.99
2023-01-06T11:12:58.247Z,99.99
2023-01-06T11:13:58.319Z,99.99
2023-01-06T11:14:58.233Z,99.99
2023-01-06T11:15:58.269Z,99.99
2023-01-06T11:16:58.291Z,99.99
2023-01-06T11:17:58.177Z,99.99
2023-01-06T11:18:58.177Z,99.99
2023-01-06T11:19:58.164Z,99.99
2023-01-06T11:20:58.134Z,99.99
2023-01-06T11:21:58.127Z,99.99
2023-01-06T11:22:58.113Z,99.99
2023-01-06T11:23:58.102Z,99.99
2023-01-06T11:24:58.103Z,99.99
2023-01-06T11:25:58.111Z,99.99
2023-01-06T11:26:58.075Z,99.99
2023-01-06T11:27:58.065Z,99.99
2023-01-06T11:28:58.049Z,99.99
2023-01-06T11:29:58.063Z,99.99
2023-01-06T11:30:58.046Z,99.99
2023-01-06T11:31:58.023Z,99.99
2023-01-06T11:32:58.121Z,99.99
2023-01-06T11:33:58.032Z,99.99
2023-01-06T11:34:58.039Z,99.99
2023-01-06T11:35:57.972Z,99.99
2023-01-06T11:36:57.963Z,99.99
2023-01-06T11:37:57.960Z,99.99
2023-01-06T11:38:57.951Z,99.99
2023-01-06T11:40:05.156Z,99.99
2023-01-06T11:40:58.920Z,99.99
2023-01-06T11:41:57.905Z,99.99
2023-01-06T11:42:57.904Z,99.99
2023-01-06T11:43:57.900Z,99.99
2023-01-06T11:44:57.902Z,99.99
2023-01-06T11:45:57.922Z,99.99
2023-01-06T11:46:57.859Z,99.99
2023-01-06T11:47:57.842Z,99.99
2023-01-06T11:48:57.960Z,99.99
2023-01-06T11:49:57.832Z,99.99
2023-01-06T11:50:57.821Z,99.99
2023-01-06T11:51:57.806Z,99.99
2023-01-06T11:52:57.816Z,99.99
2023-01-06T11:53:57.778Z,99.99
2023-01-06T11:54:57.771Z,99.99
2023-01-06T11:55:57.763Z,99.99
2023-01-06T11:56:57.752Z,99.99
2023-01-06T11:57:57.760Z,99.99
2023-01-06T11:58:57.733Z,99.99
2023-01-06T11:59:57.717Z,99.99
2023-01-06T12:00:57.728Z,99.99
2023-01-06T12:01:57.927Z,99.99
2023-01-06T12:02:57.785Z,99.99
2023-01-06T12:03:57.679Z,99.99
2023-01-06T12:04:57.799Z,99.99
2023-01-06T12:05:57.653Z,99.99
2023-01-06T12:06:57.651Z,99.99
2023-01-06T12:07:57.657Z,99.99
2023-01-06T12:08:57.642Z,99.99
2023-01-06T12:09:57.618Z,99.99
2023-01-06T12:10:57.612Z,99.99
2023-01-06T12:11:57.586Z,99.99
2023-01-06T12:12:57.576Z,99.99
2023-01-06T12:14:11.045Z,99.99
2023-01-06T12:14:58.557Z,99.99
2023-01-06T12:15:57.550Z,99.99
2023-01-06T12:16:57.622Z,99.99
2023-01-06T12:17:57.534Z,99.99
2023-01-06T12:18:57.515Z,99.99
2023-01-06T12:19:57.512Z,99.99
2023-01-06T12:20:57.606Z,99.99
2023-01-06T12:21:57.481Z,99.99
2023-01-06T12:22:57.483Z,99.99
2023-01-06T12:23:57.460Z,99.99
2023-01-06T12:24:57.447Z,99.98
2023-01-06T12:25:57.446Z,99.99
2023-01-06T12:26:57.430Z,99.99
2023-01-06T12:27:57.421Z,99.99
2023-01-06T12:28:57.407Z,99.99
2023-01-06T12:29:57.403Z,99.99
2023-01-06T12:30:57.488Z,99.43
2023-01-06T12:31:57.392Z,99.32
2023-01-06T12:32:57.361Z,99.11
2023-01-06T12:33:57.380Z,98.91
2023-01-06T12:34:57.339Z,99.11
2023-01-06T12:35:57.344Z,98.71
2023-01-06T12:36:57.458Z,98.50
2023-01-06T12:37:57.378Z,98.40
2023-01-06T12:38:57.323Z,97.99
2023-01-06T12:39:57.292Z,97.95
2023-01-06T12:40:57.287Z,97.99
2023-01-06T12:41:57.288Z,98.05
2023-01-06T12:42:57.259Z,97.33
2023-01-06T12:43:57.255Z,97.13
2023-01-06T12:44:57.256Z,96.92
2023-01-06T12:45:58.037Z,97.44
2023-01-06T12:46:57.223Z,97.24
2023-01-06T12:47:57.221Z,97.03
2023-01-06T12:48:57.204Z,96.92
2023-01-06T12:49:57.186Z,96.83
2023-01-06T12:50:57.185Z,96.62
2023-01-06T12:51:57.171Z,97.03
2023-01-06T12:52:57.278Z,96.51
2023-01-06T12:53:57.151Z,96.72